Time;durP1;ratioP1;P1;durP2;ratioP2;P2;SDS_P1;SDS_P2;PMS_P1;PMS_P2;Temp;Humidity;BMP_temperature;BMP_pressure;BME280_temperature;BME280_humidity;BME280_pressure;Samples;Min_cycle;Max_cycle;Signal;HPM_P1;HPM_P2
2021/05/15 00:01:11;;;;;;;1.53;1.13;;;19.50;91.20;;;19.42;45.68;100293.28;4872779;28;99377;-55
2021/05/15 00:03:38;;;;;;;0.70;0.70;;;19.50;91.10;;;19.42;45.49;100294.16;4890867;28;99104;-55
2021/05/15 00:06:04;;;;;;;1.07;0.80;;;19.50;91.10;;;19.44;45.41;100296.69;4866826;28;100724;-62
2021/05/15 00:08:30;;;;;;;1.03;0.80;;;19.50;91.10;;;19.43;45.70;100295.84;4883815;28;100251;-55
2021/05/15 00:10:56;;;;;;;0.73;0.60;;;19.50;91.10;;;19.45;45.64;100296.56;4877665;28;97743;-54
2021/05/15 00:13:23;;;;;;;1.13;0.87;;;19.50;91.00;;;19.46;45.47;100284.06;4889780;28;103449;-53
2021/05/15 00:15:50;;;;;;;1.37;1.07;;;19.50;91.00;;;19.45;45.66;100287.69;4875548;28;98227;-55
2021/05/15 00:18:16;;;;;;;1.20;0.90;;;19.50;91.00;;;19.46;45.37;100290.25;4870525;28;101808;-59
2021/05/15 00:20:41;;;;;;;2.30;1.37;;;19.50;91.10;;;19.44;45.44;100288.66;4896322;28;98947;-54
2021/05/15 00:23:07;;;;;;;1.00;0.90;;;19.50;91.10;;;19.41;45.80;100287.09;4876731;28;98428;-60
2021/05/15 00:25:33;;;;;;;0.80;0.80;;;19.40;91.10;;;19.41;45.52;100280.91;4861180;28;112492;-60
2021/05/15 00:28:00;;;;;;;1.00;0.90;;;19.40;91.20;;;19.41;45.63;100280.91;4865164;28;97330;-62
2021/05/15 00:30:26;;;;;;;0.60;0.60;;;19.40;91.10;;;19.37;45.71;100271.38;4872295;28;99649;-57
2021/05/15 00:32:52;;;;;;;1.20;1.10;;;19.40;91.30;;;19.29;45.79;100275.53;4879778;28;98013;-56
2021/05/15 00:35:18;;;;;;;1.13;0.80;;;19.30;91.50;;;19.26;46.07;100273.09;4894251;28;97420;-51
2021/05/15 00:37:44;;;;;;;2.50;1.87;;;19.20;91.60;;;19.25;45.82;100282.09;4872748;28;99332;-59
2021/05/15 00:40:12;;;;;;;2.03;1.57;;;19.20;91.40;;;19.14;46.17;100273.19;4893832;28;97754;-55
2021/05/15 00:42:39;;;;;;;1.27;1.17;;;19.00;91.90;;;19.06;46.28;100281.78;4877160;28;99860;-55
2021/05/15 00:45:09;;;;;;;1.63;1.13;;;18.90;92.20;;;18.98;46.68;100268.19;4880361;28;98273;-59
2021/05/15 00:47:35;;;;;;;0.80;0.80;;;18.80;92.40;;;18.93;46.86;100275.66;4888594;28;102431;-57
2021/05/15 00:50:01;;;;;;;0.87;0.87;;;18.70;92.60;;;18.91;46.69;100269.59;4879712;28;98709;-60
2021/05/15 00:52:36;;;;;;;0.90;0.80;;;18.70;92.40;;;18.92;46.77;100257.94;4873190;28;98661;-64
2021/05/15 00:55:12;;;;;;;1.20;0.80;;;18.80;92.30;;;18.92;46.65;100257.94;4878473;28;97576;-61
2021/05/15 00:57:40;;;;;;;0.80;0.80;;;18.80;92.40;;;18.85;47.06;100267.41;4870509;28;104817;-56
2021/05/15 01:00:09;;;;;;;0.97;0.90;;;18.70;92.50;;;18.80;47.04;100262.38;4880473;28;97410;-60
2021/05/15 01:02:36;;;;;;;1.10;1.00;;;18.60;92.70;;;18.75;46.99;100266.38;4873810;28;98347;-62
2021/05/15 01:05:02;;;;;;;1.50;1.07;;;18.50;92.90;;;18.63;47.20;100263.66;4874489;28;97621;-55
2021/05/15 01:07:28;;;;;;;0.83;0.80;;;18.40;92.90;;;18.62;47.24;100269.94;4872509;28;99235;-54
2021/05/15 01:09:54;;;;;;;1.50;1.33;;;18.40;93.00;;;18.55;47.47;100266.06;4879196;28;99422;-54
2021/05/15 01:12:20;;;;;;;1.20;0.90;;;18.30;93.20;;;18.53;47.44;100261.78;4851449;28;98551;-57
2021/05/15 01:14:46;;;;;;;1.17;1.00;;;18.20;93.50;;;18.51;47.60;100269.91;4876844;28;100762;-62
2021/05/15 01:17:12;;;;;;;1.87;0.97;;;18.20;93.50;;;18.53;47.52;100262.66;4882212;28;97298;-63
2021/05/15 01:19:38;;;;;;;1.83;0.80;;;18.30;93.10;;;18.57;47.56;100269.47;4878186;28;100214;-61
2021/05/15 01:22:14;;;;;;;1.67;0.87;;;18.40;93.20;;;18.60;47.35;100269.22;4898183;28;96989;-64
2021/05/15 01:24:44;;;;;;;1.70;1.00;;;18.40;93.10;;;18.59;47.75;100267.50;4887407;28;99566;-55
2021/05/15 01:27:13;;;;;;;0.80;0.80;;;18.40;93.10;;;18.58;47.13;100265.81;4877911;28;98651;-56
2021/05/15 01:29:42;;;;;;;1.73;0.93;;;18.40;92.80;;;18.62;47.37;100269.09;4881925;28;98043;-62
2021/05/15 01:32:09;;;;;;;2.77;1.70;;;18.50;92.70;;;18.55;47.29;100271.38;4881483;28;97635;-60
2021/05/15 01:34:35;;;;;;;0.63;0.60;;;18.40;92.70;;;18.61;47.43;100272.75;4889153;28;99649;-62
2021/05/15 01:37:01;;;;;;;0.80;0.70;;;18.40;93.20;;;18.59;47.60;100267.50;4898011;28;97210;-58
2021/05/15 01:39:27;;;;;;;1.37;1.27;;;18.40;93.10;;;18.55;47.49;100266.06;4874701;28;100458;-55
2021/05/15 01:41:53;;;;;;;0.70;0.60;;;18.30;93.20;;;18.52;47.77;100266.28;4898904;28;97491;-62
2021/05/15 01:44:19;;;;;;;4.70;1.50;;;18.20;93.60;;;18.46;47.76;100260.53;4892267;28;97010;-63
2021/05/15 01:46:45;;;;;;;2.50;1.20;;;18.20;93.30;;;18.40;47.84;100251.16;4879818;28;99673;-56
2021/05/15 01:49:11;;;;;;;1.67;1.53;;;18.10;93.50;;;18.40;48.08;100248.50;4873666;28;97797;-52
2021/05/15 01:51:38;;;;;;;1.37;1.10;;;18.10;93.70;;;18.36;48.24;100255.00;4880869;28;98527;-49
2021/05/15 01:54:04;;;;;;;1.00;0.87;;;18.00;94.20;;;18.39;48.17;100249.47;4888183;28;97562;-64
2021/05/15 01:56:31;;;;;;;1.30;0.90;;;18.10;94.00;;;18.43;48.20;100249.13;4889168;28;97993;-56
2021/05/15 01:58:57;;;;;;;1.17;0.80;;;18.20;93.70;;;18.51;47.87;100248.53;4877463;28;99910;-64
2021/05/15 02:01:25;;;;;;;1.73;1.53;;;18.30;93.50;;;18.55;47.52;100244.69;4877571;28;99419;-52
2021/05/15 02:03:52;;;;;;;2.80;1.77;;;18.40;92.90;;;18.56;47.52;100234.84;4894895;28;99720;-61
2021/05/15 02:06:18;;;;;;;1.93;1.63;;;18.40;92.50;;;18.56;47.46;100235.69;4883410;28;99237;-55
2021/05/15 02:08:48;;;;;;;0.57;0.50;;;18.30;92.60;;;18.59;47.57;100235.47;4877800;28;97653;-57
2021/05/15 02:11:19;;;;;;;1.17;0.80;;;18.40;93.20;;;18.63;47.60;100231.63;4890487;28;97931;-64
2021/05/15 02:13:47;;;;;;;3.37;1.70;;;18.50;93.60;;;18.64;47.40;100227.97;4873470;28;98062;-54
2021/05/15 02:16:13;;;;;;;0.80;0.80;;;18.50;92.70;;;18.68;47.43;100218.78;4870199;28;99486;-57
2021/05/15 02:18:40;;;;;;;1.33;0.80;;;18.60;92.90;;;18.75;47.40;100212.97;4879493;28;99390;-56
2021/05/15 02:21:06;;;;;;;1.10;1.00;;;18.70;92.50;;;18.79;46.91;100222.44;4878937;28;97606;-61
2021/05/15 02:23:34;;;;;;;0.67;0.67;;;18.70;91.90;;;18.85;47.10;100220.16;4891928;28;97351;-56
2021/05/15 02:26:00;;;;;;;1.10;1.00;;;18.80;92.60;;;18.84;47.00;100214.94;4898627;28;96926;-51
2021/05/15 02:28:26;;;;;;;2.90;2.00;;;18.80;92.10;;;18.79;46.48;100214.41;4877346;28;98183;-58
2021/05/15 02:30:52;;;;;;;2.97;2.00;;;18.70;91.70;;;18.72;46.34;100225.59;4896371;28;97539;-60
2021/05/15 02:33:19;;;;;;;1.23;1.13;;;18.60;91.90;;;18.66;47.31;100218.06;4892242;28;97435;-56
2021/05/15 02:35:47;;;;;;;1.27;0.90;;;18.40;92.50;;;18.66;47.23;100214.50;4895527;28;97819;-53
2021/05/15 02:38:15;;;;;;;3.23;1.63;;;18.40;92.30;;;18.61;47.33;100222.84;4892338;28;97970;-56
2021/05/15 02:40:42;;;;;;;1.00;0.90;;;18.40;93.00;;;18.57;47.55;100226.72;4906811;28;97380;-56
2021/05/15 02:43:09;;;;;;;0.97;0.90;;;18.30;93.10;;;18.53;47.70;100222.59;4894567;28;98714;-57
2021/05/15 02:45:35;;;;;;;1.10;1.00;;;18.30;93.00;;;18.49;47.83;100214.91;4913881;28;101605;-50
2021/05/15 02:48:02;;;;;;;0.60;0.60;;;18.20;93.60;;;18.49;47.65;100226.44;4890712;28;99179;-59
2021/05/15 02:50:28;;;;;;;0.80;0.70;;;18.20;93.10;;;18.48;47.92;100221.22;4894138;28;98078;-58
2021/05/15 02:52:54;;;;;;;1.10;0.87;;;18.20;93.40;;;18.50;47.74;100219.28;4893573;28;96968;-57
2021/05/15 02:55:23;;;;;;;2.13;0.70;;;18.30;93.10;;;18.51;47.58;100219.16;4894265;28;99539;-59
2021/05/15 02:57:50;;;;;;;1.17;1.07;;;18.30;92.70;;;18.51;47.02;100227.16;4892286;28;97995;-53
2021/05/15 03:00:28;;;;;;;0.80;0.50;;;18.30;92.10;;;18.55;47.69;100222.47;4912722;28;97129;-57
2021/05/15 03:02:56;;;;;;;1.00;0.70;;;18.30;93.30;;;18.61;47.51;100216.66;4894544;28;97570;-53
2021/05/15 03:05:25;;;;;;;3.90;1.30;;;18.50;93.00;;;18.63;46.89;100215.59;4897443;28;100660;-59
2021/05/15 03:07:51;;;;;;;1.87;1.07;;;18.60;92.20;;;18.59;47.22;100211.44;4894583;28;96977;-59
2021/05/15 03:10:23;;;;;;;0.93;0.83;;;18.40;92.50;;;18.57;47.47;100209.84;4893176;28;97285;-53
2021/05/15 03:12:51;;;;;;;0.80;0.80;;;18.40;93.20;;;18.56;47.71;100208.16;4908813;28;97042;-60
2021/05/15 03:15:17;;;;;;;1.40;0.63;;;18.40;93.20;;;18.64;47.44;100206.59;4894247;28;97885;-57
2021/05/15 03:17:44;;;;;;;1.00;0.87;;;18.50;93.00;;;18.63;47.53;100199.56;4893871;28;99165;-53
2021/05/15 03:20:14;;;;;;;0.93;0.60;;;18.50;92.70;;;18.60;47.40;100199.78;4898636;28;97201;-55
2021/05/15 03:22:40;;;;;;;0.70;0.60;;;18.40;93.00;;;18.63;47.40;100199.56;4890634;28;97217;-55
2021/05/15 03:25:08;;;;;;;0.97;0.70;;;18.50;92.80;;;18.68;47.06;100192.06;4901858;28;97126;-53
2021/05/15 03:27:34;;;;;;;0.70;0.53;;;18.60;92.50;;;18.71;47.25;100196.31;4905786;28;99802;-58
2021/05/15 03:30:00;;;;;;;0.97;0.90;;;18.60;92.70;;;18.71;47.32;100199.84;4897885;28;97114;-54
2021/05/15 03:32:26;;;;;;;1.03;0.77;;;18.60;92.80;;;18.68;47.20;100191.22;4891843;28;97345;-57
2021/05/15 03:34:52;;;;;;;0.40;0.40;;;18.50;92.60;;;18.69;47.26;100207.13;4916196;28;99245;-56
2021/05/15 03:37:18;;;;;;;0.90;0.57;;;18.50;92.90;;;18.72;47.31;100198.88;4891511;28;97600;-55
2021/05/15 03:39:45;;;;;;;1.20;0.80;;;18.60;92.80;;;18.70;47.01;100199.97;4895062;28;97062;-54
2021/05/15 03:42:11;;;;;;;1.00;0.60;;;18.50;92.60;;;18.74;47.07;100196.06;4908266;28;97024;-54
2021/05/15 03:44:37;;;;;;;1.00;0.90;;;18.60;92.80;;;18.76;47.25;100193.28;4902911;28;98027;-54
2021/05/15 03:47:03;;;;;;;0.97;0.43;;;18.70;92.50;;;18.82;47.17;100203.53;4896635;28;98274;-58
2021/05/15 03:49:31;;;;;;;0.70;0.60;;;18.70;92.50;;;18.89;46.84;100199.38;4901082;28;97131;-57
2021/05/15 03:51:57;;;;;;;0.80;0.60;;;18.80;92.40;;;18.94;46.89;100197.19;4898574;28;97494;-51
2021/05/15 03:54:22;;;;;;;0.90;0.90;;;18.90;92.10;;;18.97;46.60;100197.00;4891833;28;99942;-55
2021/05/15 03:56:48;;;;;;;0.77;0.50;;;19.00;91.90;;;19.03;46.53;100201.84;4914257;28;103466;-50
2021/05/15 03:59:14;;;;;;;0.80;0.60;;;19.00;91.90;;;19.00;46.49;100194.06;4895142;28;108694;-54
2021/05/15 04:01:40;;;;;;;0.70;0.60;;;19.00;92.10;;;18.99;46.53;100208.41;4899151;28;97451;-54
2021/05/15 04:04:05;;;;;;;1.70;0.90;;;19.00;92.10;;;18.99;46.71;100211.09;4897476;28;109102;-52
2021/05/15 04:06:31;;;;;;;0.60;0.50;;;18.90;92.20;;;18.97;46.55;100203.19;4895168;28;99342;-57
2021/05/15 04:08:57;;;;;;;1.07;0.80;;;18.90;92.10;;;18.97;46.49;100202.34;4898277;28;99628;-61
2021/05/15 04:11:23;;;;;;;1.00;0.60;;;18.90;91.60;;;19.00;46.58;100202.94;4892497;28;98562;-52
2021/05/15 04:13:54;;;;;;;0.73;0.60;;;18.90;92.10;;;18.97;46.62;100195.16;4892945;28;97461;-49
2021/05/15 04:19:04;;;;;;;0.97;0.80;;;19.00;91.90;;;19.04;46.34;100195.53;4920066;28;97446;-48
2021/05/15 04:21:30;;;;;;;0.93;0.83;;;19.00;91.80;;;19.03;46.43;100196.50;4892824;28;114395;-47
2021/05/15 04:23:56;;;;;;;0.80;0.67;;;19.00;91.80;;;18.95;46.60;100193.56;4899933;28;107752;-55
2021/05/15 04:26:22;;;;;;;2.87;1.67;;;18.80;92.30;;;18.93;46.50;100203.50;4888574;28;113628;-52
2021/05/15 04:28:47;;;;;;;1.27;1.13;;;18.80;91.80;;;18.90;46.80;100203.75;4898565;28;107579;-54
2021/05/15 04:31:13;;;;;;;1.03;0.80;;;18.70;92.50;;;18.84;47.05;100197.09;4892141;28;100918;-51
2021/05/15 04:33:39;;;;;;;0.80;0.70;;;18.70;92.40;;;18.79;47.00;100198.38;4898259;28;98641;-49
2021/05/15 04:36:05;;;;;;;0.57;0.57;;;18.60;92.80;;;18.76;46.91;100203.97;4913931;28;97727;-52
2021/05/15 04:38:31;;;;;;;1.07;0.90;;;18.60;92.90;;;18.81;46.80;100204.50;4892631;28;96898;-52
2021/05/15 04:40:57;;;;;;;1.20;1.10;;;18.70;92.40;;;18.78;46.98;100202.03;4895730;28;97341;-53
2021/05/15 04:43:23;;;;;;;0.77;0.77;;;18.70;92.50;;;18.85;46.84;100203.28;4893799;28;97482;-56
2021/05/15 04:45:48;;;;;;;1.33;0.80;;;18.80;92.50;;;18.87;46.63;100204.00;4895523;28;98464;-54
2021/05/15 04:48:14;;;;;;;1.10;1.00;;;18.80;92.00;;;18.82;46.88;100209.72;4907507;28;97280;-57
2021/05/15 04:50:40;;;;;;;1.30;1.00;;;18.70;92.50;;;18.76;47.10;100198.63;4894399;28;110092;-57
2021/05/15 04:53:06;;;;;;;0.90;0.77;;;18.60;92.60;;;18.79;46.67;100204.59;4898534;28;98516;-55
2021/05/15 04:55:32;;;;;;;0.80;0.80;;;18.70;91.90;;;18.87;46.79;100204.00;4896985;28;99755;-50
2021/05/15 04:58:00;;;;;;;0.80;0.70;;;18.80;92.30;;;18.92;46.61;100207.16;4911149;28;97808;-52
2021/05/15 05:00:27;;;;;;;1.03;0.80;;;18.90;92.20;;;18.98;46.49;100206.72;4878277;28;97448;-49
2021/05/15 05:02:54;;;;;;;0.80;0.70;;;19.00;92.00;;;19.02;46.33;100200.16;4893901;28;100056;-56
2021/05/15 05:05:20;;;;;;;0.70;0.70;;;19.10;91.80;;;19.05;46.18;100199.03;4877520;28;97236;-56
2021/05/15 05:07:47;;;;;;;0.63;0.63;;;19.10;91.80;;;19.05;46.08;100194.56;4894466;28;97545;-56
2021/05/15 05:10:13;;;;;;;0.73;0.73;;;19.10;91.70;;;19.07;46.32;100197.94;4894136;28;96998;-60
2021/05/15 05:12:39;;;;;;;2.63;1.83;;;19.10;91.80;;;19.10;46.14;100196.88;4887611;28;96796;-51
2021/05/15 05:15:06;;;;;;;0.70;0.67;;;19.10;91.40;;;19.10;46.46;100197.72;4899253;28;99527;-60
2021/05/15 05:17:32;;;;;;;0.87;0.77;;;19.10;91.70;;;19.12;46.41;100211.84;4874670;28;97103;-58
2021/05/15 05:19:58;;;;;;;2.93;1.37;;;19.20;91.60;;;19.06;46.40;100198.94;4902108;28;97998;-51
2021/05/15 05:22:24;;;;;;;1.30;0.97;;;19.00;91.90;;;19.06;46.45;100195.41;4904223;28;98384;-50
2021/05/15 05:24:50;;;;;;;0.60;0.60;;;19.00;91.70;;;18.99;46.66;100197.72;4914711;28;99651;-50
2021/05/15 05:27:19;;;;;;;1.10;0.90;;;18.90;92.20;;;19.01;46.52;100198.44;4889852;28;97418;-50
2021/05/15 05:29:45;;;;;;;1.43;0.83;;;18.90;92.10;;;19.01;46.69;100190.44;4898416;28;97443;-52
2021/05/15 05:32:11;;;;;;;0.67;0.67;;;18.90;91.90;;;18.98;46.68;100190.66;4908100;28;97489;-62
2021/05/15 05:34:38;;;;;;;0.70;0.70;;;18.90;92.10;;;18.99;46.40;100189.69;4896801;28;100640;-59
2021/05/15 05:37:04;;;;;;;0.63;0.63;;;18.90;92.10;;;18.98;46.68;100188.00;4892686;28;99677;-53
2021/05/15 05:39:31;;;;;;;1.17;1.07;;;18.90;92.20;;;18.95;46.84;100188.22;4885820;28;97936;-59
2021/05/15 05:41:59;;;;;;;1.90;1.33;;;18.80;92.10;;;18.91;46.38;100192.09;4909831;28;99469;-55
2021/05/15 05:44:25;;;;;;;2.30;1.63;;;18.80;91.90;;;18.84;46.84;100183.72;4903828;28;98164;-53
2021/05/15 05:46:51;;;;;;;0.80;0.77;;;18.70;92.30;;;18.88;46.83;100187.00;4911307;28;97095;-55
2021/05/15 05:49:17;;;;;;;1.60;0.80;;;18.80;92.40;;;18.90;46.70;100185.06;4889767;28;97222;-59
2021/05/15 05:51:42;;;;;;;0.73;0.60;;;18.80;92.20;;;18.85;46.93;100192.59;4876854;28;97408;-55
2021/05/15 05:54:08;;;;;;;0.60;0.60;;;18.70;92.50;;;18.88;46.84;100185.19;4892602;28;102541;-59
2021/05/15 05:56:35;;;;;;;0.77;0.70;;;18.80;92.30;;;18.90;46.55;100185.91;4893971;28;98261;-55
2021/05/15 05:59:01;;;;;;;0.70;0.70;;;18.90;92.20;;;18.96;46.78;100184.59;4908837;28;97547;-60
2021/05/15 06:01:27;;;;;;;0.80;0.80;;;19.00;92.00;;;19.00;46.55;100188.72;4890867;28;97896;-57
2021/05/15 06:03:53;;;;;;;0.70;0.60;;;19.00;91.90;;;19.01;46.40;100183.25;4893067;28;100993;-62
2021/05/15 06:06:18;;;;;;;3.50;2.30;;;19.00;91.90;;;18.48;48.24;100184.69;4887089;28;108391;-57
2021/05/15 06:08:44;;;;;;;2.27;1.50;;;18.20;93.90;;;18.18;48.67;100192.31;4895265;28;97213;-53
2021/05/15 06:11:10;;;;;;;3.33;1.47;;;17.50;95.50;;;18.22;48.48;100191.13;4897797;28;97327;-54
2021/05/15 06:13:36;;;;;;;2.07;1.07;;;17.70;94.50;;;18.35;48.24;100194.56;4911080;28;97223;-55
2021/05/15 06:16:02;;;;;;;1.67;1.10;;;18.10;94.00;;;18.50;47.91;100187.22;4891786;28;97916;-58
2021/05/15 06:18:28;;;;;;;1.27;1.00;;;18.40;93.40;;;18.60;47.63;100189.09;4886444;28;97205;-58
2021/05/15 06:20:54;;;;;;;1.30;0.93;;;18.50;93.10;;;18.65;47.70;100181.59;4892000;28;100294;-52
2021/05/15 06:23:20;;;;;;;1.10;1.00;;;18.60;92.90;;;18.68;47.29;100181.38;4896200;28;98239;-58
2021/05/15 06:25:46;;;;;;;1.20;1.07;;;18.60;92.70;;;18.71;47.54;100174.94;4895473;28;97858;-54
2021/05/15 06:28:12;;;;;;;1.40;1.00;;;18.70;92.90;;;18.73;47.37;100187.22;4912143;28;97410;-51
2021/05/15 06:30:39;;;;;;;1.10;0.80;;;18.70;92.60;;;18.77;47.26;100181.63;4895134;28;98748;-54
2021/05/15 06:33:05;;;;;;;1.50;1.10;;;18.70;92.70;;;18.83;46.93;100184.69;4912917;28;98180;-55
2021/05/15 06:35:32;;;;;;;3.43;1.70;;;18.80;92.40;;;18.86;46.92;100184.44;4889765;28;97064;-55
2021/05/15 06:37:59;;;;;;;2.10;1.20;;;18.80;92.20;;;18.88;46.88;100187.84;4898650;28;97151;-51
2021/05/15 06:40:25;;;;;;;1.17;1.07;;;18.80;92.50;;;18.93;46.89;100179.47;4891109;28;99655;-56
2021/05/15 06:42:51;;;;;;;1.47;0.90;;;18.90;92.30;;;18.95;46.80;100182.88;4881183;28;97173;-56
2021/05/15 06:45:17;;;;;;;1.53;0.80;;;19.00;92.20;;;18.94;46.64;100181.16;4906849;28;98408;-61
2021/05/15 06:47:43;;;;;;;4.50;2.60;;;18.90;92.50;;;18.90;47.01;100180.56;4907792;28;97338;-53
2021/05/15 06:50:09;;;;;;;0.93;0.93;;;18.80;92.60;;;18.85;47.06;100179.22;4909521;28;98753;-56
2021/05/15 06:52:36;;;;;;;1.53;1.00;;;18.70;92.80;;;18.85;46.89;100182.75;4873872;28;101202;-54
2021/05/15 06:55:05;;;;;;;1.63;0.90;;;18.70;92.70;;;18.85;46.84;100176.56;4901053;28;97461;-54
2021/05/15 06:57:30;;;;;;;1.40;1.03;;;18.70;92.80;;;18.78;47.34;100181.50;4888383;28;97221;-52
2021/05/15 06:59:56;;;;;;;3.60;3.13;;;18.60;93.50;;;18.59;47.40;100178.53;4895582;28;97643;-57
2021/05/15 07:02:22;;;;;;;1.03;0.90;;;18.40;93.10;;;18.63;47.53;100177.31;4871810;28;99254;-55
2021/05/15 07:04:50;;;;;;;1.13;0.93;;;18.40;93.40;;;18.44;47.82;100177.88;4888045;28;97746;-54
2021/05/15 07:07:16;;;;;;;1.47;1.00;;;18.10;93.70;;;18.36;47.56;100178.44;4903294;28;97384;-53
2021/05/15 07:09:42;;;;;;;4.20;3.10;;;18.00;93.50;;;18.12;48.68;100183.81;4911542;28;97381;-49
2021/05/15 07:12:08;;;;;;;2.93;2.30;;;17.70;94.50;;;18.03;48.87;100179.16;4878989;28;99902;-53
2021/05/15 07:14:33;;;;;;;4.27;3.50;;;17.60;94.70;;;17.86;49.12;100176.88;4907742;28;99362;-54
2021/05/15 07:16:59;;;;;;;4.43;3.33;;;17.40;94.80;;;18.00;48.05;100178.53;4895701;28;96961;-54
2021/05/15 07:19:25;;;;;;;2.17;1.77;;;17.60;94.10;;;17.97;49.07;100176.94;4892925;28;98989;-50
2021/05/15 07:21:51;;;;;;;3.80;3.30;;;17.60;94.50;;;17.91;49.31;100174.72;4893567;28;97243;-55
2021/05/15 07:24:17;;;;;;;3.63;2.90;;;17.50;94.60;;;17.79;49.25;100176.50;4908350;28;97209;-53
2021/05/15 07:26:43;;;;;;;3.57;3.27;;;17.40;95.00;;;17.59;49.97;100178.84;4896161;28;101874;-52
2021/05/15 07:29:08;;;;;;;7.67;3.23;;;17.10;95.20;;;17.65;49.81;100173.94;4893117;28;104309;-56
2021/05/15 07:31:34;;;;;;;3.93;3.53;;;17.20;95.60;;;17.59;50.14;100170.84;4894580;28;102398;-52
2021/05/15 07:34:01;;;;;;;2.47;1.60;;;17.10;95.80;;;17.53;50.07;100169.50;4890299;28;97354;-56
2021/05/15 07:36:27;;;;;;;3.63;3.33;;;17.10;95.90;;;17.38;50.31;100162.59;4888338;28;97132;-52
2021/05/15 07:38:53;;;;;;;1.30;1.20;;;17.00;95.90;;;17.50;50.33;100165.25;4892473;28;99549;-55
2021/05/15 07:41:19;;;;;;;2.90;2.70;;;17.00;96.70;;;17.47;50.47;100165.44;4889229;28;98613;-53
2021/05/15 07:43:45;;;;;;;1.47;1.37;;;17.10;96.00;;;17.62;49.99;100159.97;4892063;28;97653;-47
2021/05/15 07:46:11;;;;;;;3.30;3.00;;;17.30;95.80;;;17.57;50.53;100154.13;4887604;28;105667;-53
2021/05/15 07:48:41;;;;;;;3.93;3.63;;;17.20;96.30;;;17.40;50.19;100158.00;4886229;28;97648;-56
2021/05/15 07:51:13;;;;;;;4.20;3.80;;;17.00;95.80;;;17.41;50.31;100151.72;4908197;28;98405;-55
2021/05/15 07:53:40;;;;;;;5.40;4.20;;;17.00;95.80;;;17.44;50.50;100155.00;4886247;28;102525;-54
2021/05/15 07:56:06;;;;;;;4.20;3.90;;;17.10;96.10;;;17.57;50.21;100154.13;4892779;28;97475;-58
2021/05/15 07:58:33;;;;;;;2.60;0.87;;;17.20;96.00;;;17.64;49.96;100150.88;4891126;28;99479;-57
2021/05/15 08:01:00;;;;;;;3.60;3.30;;;17.30;95.90;;;17.68;49.65;100151.53;4911796;28;97289;-51
2021/05/15 08:03:26;;;;;;;3.73;3.43;;;17.40;95.30;;;17.53;49.53;100154.34;4904629;28;97649;-55
2021/05/15 08:05:52;;;;;;;3.13;2.50;;;17.20;95.00;;;17.54;50.25;100145.38;4892757;28;97295;-55
2021/05/15 08:08:18;;;;;;;3.53;3.23;;;17.20;96.00;;;17.64;49.65;100144.69;4889001;28;100604;-57
2021/05/15 08:10:44;;;;;;;1.77;1.67;;;17.30;95.30;;;17.82;48.66;100146.06;4893309;28;97915;-53
2021/05/15 08:13:09;;;;;;;4.63;3.33;;;17.60;94.80;;;17.73;48.66;100149.41;4891065;28;97204;-53
2021/05/15 08:15:35;;;;;;;2.40;2.20;;;17.50;94.40;;;17.97;49.26;100146.75;4903869;28;97025;-55
2021/05/15 08:18:02;;;;;;;3.57;3.23;;;17.80;94.60;;;18.07;48.54;100147.75;4893831;28;97210;-51
2021/05/15 08:20:28;;;;;;;3.50;3.20;;;18.00;93.80;;;17.99;48.57;100145.66;4885284;28;99907;-51
2021/05/15 08:22:54;;;;;;;0.70;0.70;;;17.80;94.00;;;18.11;48.91;100139.41;4897495;28;98465;-49
2021/05/15 08:25:21;;;;;;;0.83;0.80;;;18.00;94.60;;;18.29;48.66;100133.66;4885766;28;97332;-53
2021/05/15 08:27:52;;;;;;;3.93;3.00;;;18.20;94.10;;;18.39;47.68;100134.66;4906319;28;97219;-57
2021/05/15 08:30:20;;;;;;;3.60;3.30;;;18.40;92.80;;;18.30;47.99;100138.03;4885047;28;99745;-55
2021/05/15 08:32:50;;;;;;;3.77;3.30;;;18.20;93.30;;;18.12;47.06;100130.44;4895302;28;97500;-51
2021/05/15 08:35:16;;;;;;;3.47;3.17;;;17.90;93.10;;;18.19;48.32;100132.63;4886131;28;97474;-55
2021/05/15 08:37:43;;;;;;;3.40;3.10;;;17.90;93.80;;;18.07;48.92;100132.56;4900772;28;99919;-51
2021/05/15 08:40:10;;;;;;;2.97;2.77;;;17.70;94.20;;;18.13;48.95;100132.13;4907801;28;97006;-59
2021/05/15 08:42:39;;;;;;;5.50;3.80;;;17.70;94.90;;;18.23;48.20;100126.13;4914169;28;97308;-56
2021/05/15 08:45:09;;;;;;;3.20;2.90;;;18.00;93.70;;;18.24;48.58;100122.47;4908410;28;96812;-53
2021/05/15 08:47:41;;;;;;;4.57;4.17;;;18.00;93.70;;;18.26;47.45;100115.19;4908789;28;102816;-55
2021/05/15 08:50:11;;;;;;;4.63;3.67;;;18.10;92.80;;;18.20;47.98;100120.97;4894621;28;99897;-51
2021/05/15 08:52:41;;;;;;;3.93;3.60;;;18.00;93.50;;;18.26;48.33;100117.88;4895895;28;99855;-57
2021/05/15 08:55:13;;;;;;;4.57;4.07;;;18.10;94.10;;;18.14;46.64;100122.31;4908317;28;97265;-56
2021/05/15 08:57:40;;;;;;;3.73;3.43;;;17.90;92.50;;;18.06;48.29;100117.53;4898113;28;102107;-52
2021/05/15 09:00:18;;;;;;;3.23;2.97;;;17.80;94.10;;;18.08;48.46;100112.97;4897039;28;98527;-51
2021/05/15 09:02:47;;;;;;;3.80;3.33;;;17.80;93.80;;;18.03;47.54;100125.78;4909291;28;97281;-53
2021/05/15 09:05:16;;;;;;;3.10;2.80;;;17.80;93.10;;;18.00;47.45;100110.00;4894222;28;99543;-51
2021/05/15 09:07:58;;;;;;;3.10;2.90;;;17.70;93.50;;;18.00;48.96;100109.16;4895242;28;97908;-53
2021/05/15 09:10:28;;;;;;;4.10;3.70;;;17.60;94.30;;;18.03;48.99;100101.75;4906827;28;97288;-51
2021/05/15 09:13:25;;;;;;;14.37;3.70;;;17.70;94.40;;;18.08;48.49;100107.63;4897554;28;96887;-53
2021/05/15 09:16:02;;;;;;;2.83;2.63;;;17.90;94.00;;;18.12;48.08;100087.75;4891572;28;97540;-56
2021/05/15 09:18:43;;;;;;;4.47;3.90;;;17.90;93.90;;;18.18;47.90;100090.91;4891091;28;97639;-52
2021/05/15 09:21:13;;;;;;;0.60;0.60;;;18.00;93.40;;;18.21;48.68;100086.16;4907554;28;97865;-56
2021/05/15 09:23:44;;;;;;;3.73;3.07;;;18.00;94.20;;;18.29;45.78;100083.78;4914527;28;97403;-49
2021/05/15 09:26:21;;;;;;;3.77;2.80;;;18.20;92.10;;;18.29;47.43;100080.25;4892084;28;97165;-56
2021/05/15 09:28:55;;;;;;;3.73;2.77;;;18.20;92.30;;;18.32;48.14;100082.69;4912880;28;96921;-56
2021/05/15 09:31:31;;;;;;;4.67;2.50;;;18.20;93.60;;;18.28;47.08;100076.75;4905555;28;99100;-55
2021/05/15 09:34:03;;;;;;;2.90;2.20;;;18.10;91.60;;;18.26;46.16;100068.00;4881226;28;97447;-57
2021/05/15 09:36:33;;;;;;;5.33;2.53;;;18.10;91.70;;;18.19;46.70;100071.25;4911345;28;97825;-56
2021/05/15 09:39:11;;;;;;;3.03;2.60;;;18.00;92.00;;;18.20;44.57;100062.25;4894499;28;96915;-50
2021/05/15 09:41:43;;;;;;;3.77;2.43;;;18.10;90.90;;;18.26;45.12;100067.16;4876283;28;101222;-49
2021/05/15 09:44:21;;;;;;;2.07;1.23;;;18.20;91.60;;;18.23;44.83;100067.41;4883993;28;99693;-57
2021/05/15 09:46:48;;;;;;;3.70;2.40;;;18.10;91.30;;;18.09;43.82;100069.28;4892050;28;98187;-49
2021/05/15 09:49:31;;;;;;;4.47;2.40;;;17.90;90.10;;;18.09;44.99;100082.63;4866879;28;98276;-52
2021/05/15 09:52:05;;;;;;;1.20;1.10;;;17.90;91.70;;;17.93;44.53;100082.06;4894473;28;98262;-49
2021/05/15 09:54:34;;;;;;;0.77;0.60;;;17.70;91.50;;;17.97;48.34;100072.03;4865876;28;97084;-55
2021/05/15 09:57:03;;;;;;;1.87;1.20;;;17.70;93.70;;;18.13;46.08;100072.56;4892623;28;97594;-57
2021/05/15 09:59:32;;;;;;;1.63;1.20;;;18.00;92.50;;;18.19;46.36;100073.91;4869122;28;99245;-57
2021/05/15 10:02:04;;;;;;;1.23;1.00;;;18.10;91.80;;;18.31;46.52;100064.97;4880895;28;98438;-53
2021/05/15 10:04:30;;;;;;;2.27;1.00;;;18.30;91.90;;;18.38;47.79;100071.56;4866851;28;97538;-58
2021/05/15 10:06:57;;;;;;;1.50;1.40;;;18.30;92.90;;;18.44;46.30;100071.06;4874986;28;99686;-58
2021/05/15 10:09:36;;;;;;;1.00;0.70;;;18.40;91.90;;;18.53;47.56;100065.03;4865657;28;101209;-56
2021/05/15 10:12:04;;;;;;;1.90;0.90;;;18.50;92.90;;;18.63;47.36;100060.66;4893923;28;99438;-53
2021/05/15 10:14:32;;;;;;;0.77;0.77;;;18.70;92.70;;;18.72;47.17;100062.63;4878589;28;97541;-58
2021/05/15 10:16:58;;;;;;;0.87;0.70;;;18.80;92.40;;;18.84;46.76;100054.63;4875875;28;97948;-58